LFOH

Le Havre Octeville Airport

Le Havre/Octeville, France
METAR LFOH 211000Z AUTO 10003KT 7000 NSC 02/M03 Q1024 NOSIG
Observed Flight Rules
Jan-21 @ 10:00 UTC (26 minutes ago) Marginal Visual Flight Rules
Wind Visibility Clouds
100° at 3 knots 7,001 meters
  • Clear skies
Temperatures Readings
Current 2°C / 36°F
Dewpoint -3°C / 27°F
Humidity 70%
Altimeter 30.24" Hg
Pressure 1023.92 hPa
Elevation 103
METAR LFOH 211000Z AUTO 10003KT 7000 NSC 02/M03 Q1024 NOSIG
Observed Flight Rules
Jan-21 @ 10:00 UTC
(26 minutes ago)
MVFR
Wind Visibility
100° at 3 knots 7,001 meters
Clouds
  • Clear skies
Temperature Dewpoint
2°C / 36°F -3°C / 27°F
Humidity Altimeter Pressure
70% 30.24" Hg 1023.92 hPa